Strona główna
METAR-TAF:

METAR-TAF

Lotnisko :

Port lotniczy Sankt Gallen-Altenrhein

Sankt Gallen, Szwajcaria

Szerokość geograficzna: 47-29-06N, Długość geograficzna: 009-33-43E, wysokość: 398 m

Aktualna obserwacja pogody

Raport powstał 44 minut temu, godzina 17:50 UTC
Wiatr 4 kt od zachodnio-północny zachód
Temperatura 26°C
Wilgotność 37%
Ciśnienie 1012 hPa
Widzialność 10 km lub więcej
Brak chmur poniżej 1500 m i brak chmur cumulonimbus

METAR: LSZR 171750Z 29004KT CAVOK 26/10 Q1012 NOSIG RMK O

czas: 20:34 (18:34 UTC)

Prognoza

Raport powstał 7 godziny i 9 minut temu, godzina 11:25 UTC
Prognoza ważna od 17 godzina 12 UTC do 17 godzina 21 UTC
Wiatr 3 kt z kierunków zmiennych
Widzialność 10 km lub więcej
Brak chmur poniżej 1500 m i brak chmur cumulonimbus
Przejściowo
od 17 godzina 12 UTC do 17 godzina 16 UTC
Wiatr 10 kt od zachodnio-północny zachód
Widzialność 10 km lub więcej
Mało chmury na wysokości 5000 ft
Rozproszone chmury na wysokości 20000 ft

TAF: LSZR 171125Z 1712/1721 VRB03KT CAVOK TEMPO 1712/1716 29010KT 9999 FEW050 SCT200

Obserwacja i prognoza pogody dla ponad 4000 lotnisk (raport METAR i TAF).

Dostępne stacje oznaczono żółtymi i czerwonymi punktami na mapie.

Najedź kursorem aby zobaczyć nazwę stacji.

Kliknij aby zobaczyć obserwacje i prognozy pogody.

Aby zmienić mapę: kliknij na zielony przycisk z czarnym krzyżykiem, aby powiększyć; na zielony przycisk z myślnikiem, aby pomniejszyć; na zielone strzałki, aby przejść do map sąsiednich.


METAR-TAF: